Aviation Digital Data Service (ADDS)

Output produced by METARs form (1246 UTC 15 November 2018)
found at http://www.aviationweather.gov/metar/data/
 
TAF MYGF 151020Z 1512/1612 13008KT 9999 SCT020 
     PROB30 
     TEMPO 1518/1522 09014KT 6000 SHRA FEW014CB SCT016 BKN030 
     PROB30 
     TEMPO 1604/1608 34015KT 7000 SHRA FEW015CB SCT018 BKN040
       
MYNN 151020Z 1512/1612 15008KT 9999 VCSH SCT020 
     PROB30 
     TEMPO 1518/1522 17012KT 7000 SHRA FEW015CB SCT018 BKN030 
     BECMG 1601/1603 02006KT SCT020 BKN040